Time;durP1;ratioP1;P1;durP2;ratioP2;P2;SDS_P1;SDS_P2;PMS_P1;PMS_P2;Temp;Humidity;BMP_temperature;BMP_pressure;BME280_temperature;BME280_humidity;BME280_pressure;Samples;Min_cycle;Max_cycle;Signal;HPM_P1;HPM_P2
2023/08/15 00:00:56;;;;;;;8.32;4.00;;;;;;;18.65;100.00;93033.94;5072963;28;20428;-78
2023/08/15 00:03:22;;;;;;;12.60;4.30;;;;;;;18.60;100.00;93012.91;5075379;28;20028;-79
2023/08/15 00:05:47;;;;;;;7.72;3.60;;;;;;;18.58;100.00;93009.81;5073686;28;20041;-78
2023/08/15 00:08:13;;;;;;;7.30;3.63;;;;;;;18.47;100.00;93010.19;5074373;28;20082;-78
2023/08/15 00:10:38;;;;;;;5.25;3.25;;;;;;;18.50;100.00;93027.31;5073033;28;20085;-79
2023/08/15 00:13:04;;;;;;;7.93;3.70;;;;;;;18.51;100.00;93034.19;5073462;28;20494;-78
2023/08/15 00:15:31;;;;;;;9.23;4.18;;;;;;;18.64;100.00;93040.34;5069827;28;20067;-78
2023/08/15 00:17:56;;;;;;;8.23;4.50;;;;;;;18.51;100.00;93047.44;5074740;28;20028;-78
2023/08/15 00:20:22;;;;;;;10.50;5.05;;;;;;;18.29;100.00;93035.25;5073175;28;20112;-78
2023/08/15 00:22:47;;;;;;;9.82;5.18;;;;;;;18.26;100.00;93035.88;5075354;28;20466;-79
2023/08/15 00:25:13;;;;;;;8.30;4.13;;;;;;;18.23;100.00;93028.56;5075742;28;20036;-78
2023/08/15 00:27:39;;;;;;;7.78;3.95;;;;;;;18.21;100.00;93036.06;5074165;28;20123;-79
2023/08/15 00:30:05;;;;;;;6.53;4.28;;;;;;;18.25;100.00;93027.16;5090240;28;20397;-78
2023/08/15 00:32:35;;;;;;;7.47;4.60;;;;;;;18.35;100.00;93007.47;5072558;28;20025;-78
2023/08/15 00:35:05;;;;;;;6.10;4.70;;;;;;;18.46;100.00;93000.69;5073387;28;20075;-79
2023/08/15 00:37:34;;;;;;;6.43;4.40;;;;;;;18.54;100.00;93001.72;5073539;28;20067;-79
2023/08/15 00:40:01;;;;;;;9.40;4.95;;;;;;;18.69;100.00;92984.47;5074292;28;20124;-78
2023/08/15 00:42:26;;;;;;;8.18;5.20;;;;;;;18.66;100.00;92982.44;5074039;28;20037;-78
2023/08/15 00:44:52;;;;;;;7.45;5.10;;;;;;;18.71;100.00;92977.75;5056101;28;20044;-78
2023/08/15 00:47:19;;;;;;;7.60;5.07;;;;;;;18.71;100.00;92974.28;5074781;28;20028;-78
2023/08/15 00:49:45;;;;;;;8.73;5.40;;;;;;;18.75;100.00;92975.22;5072035;28;20444;-78
2023/08/15 00:52:14;;;;;;;6.50;4.97;;;;;;;18.77;100.00;92977.53;5072528;28;20051;-79
2023/08/15 00:54:46;;;;;;;7.95;4.82;;;;;;;18.85;100.00;92996.06;5084591;28;20044;-78
2023/08/15 00:57:13;;;;;;;6.28;4.63;;;;;;;18.83;100.00;92985.00;5074658;28;20032;-79
2023/08/15 00:59:42;;;;;;;6.82;5.07;;;;;;;18.75;100.00;92991.13;5074034;28;20483;-78
2023/08/15 01:02:08;;;;;;;8.50;5.10;;;;;;;18.73;100.00;92998.63;5072831;28;20406;-78
2023/08/15 01:04:34;;;;;;;8.02;5.18;;;;;;;18.66;100.00;92979.81;5073414;28;20051;-78
2023/08/15 01:06:59;;;;;;;8.73;5.50;;;;;;;18.60;100.00;92973.94;5073019;28;20052;-77
2023/08/15 01:09:25;;;;;;;8.07;5.00;;;;;;;18.56;100.00;92959.78;5089702;28;20414;-78
2023/08/15 01:11:58;;;;;;;9.55;5.63;;;;;;;18.52;100.00;92956.22;5073779;28;20067;-78
2023/08/15 01:14:29;;;;;;;6.65;5.13;;;;;;;18.48;100.00;92956.06;5072016;28;20039;-78
2023/08/15 01:16:56;;;;;;;8.15;5.13;;;;;;;18.43;100.00;92972.16;5073864;28;20116;-79
2023/08/15 01:19:21;;;;;;;7.90;5.25;;;;;;;18.42;100.00;92983.88;5074675;28;20024;-78
2023/08/15 01:21:48;;;;;;;8.90;5.20;;;;;;;18.36;100.00;92985.16;5074064;28;20538;-78
2023/08/15 01:24:16;;;;;;;9.50;5.30;;;;;;;18.34;100.00;92976.75;5067837;28;20109;-79
2023/08/15 01:26:42;;;;;;;8.00;5.53;;;;;;;18.35;100.00;92982.81;5073241;28;20111;-78
2023/08/15 01:29:08;;;;;;;8.25;5.75;;;;;;;18.34;100.00;92987.34;5073154;28;20039;-78
2023/08/15 01:31:46;;;;;;;6.97;5.28;;;;;;;18.33;100.00;92980.53;5089839;28;20427;-78
2023/08/15 01:34:23;;;;;;;6.72;5.10;;;;;;;18.35;100.00;92973.03;5088998;28;20025;-78
2023/08/15 01:36:57;;;;;;;7.78;5.82;;;;;;;18.40;100.00;92972.81;5066882;28;20029;-77
2023/08/15 01:39:30;;;;;;;10.82;5.22;;;;;;;18.40;100.00;92983.44;5074334;28;20039;-78
2023/08/15 01:42:01;;;;;;;7.90;5.82;;;;;;;18.33;100.00;92983.16;5073851;28;20069;-79
2023/08/15 01:44:30;;;;;;;8.82;5.28;;;;;;;18.36;100.00;92995.78;5071409;28;20048;-78
2023/08/15 01:46:57;;;;;;;9.48;5.65;;;;;;;18.33;100.00;92988.47;5065613;28;20032;-78
2023/08/15 01:49:22;;;;;;;8.38;5.75;;;;;;;18.30;100.00;92987.22;5056523;28;20048;-78
2023/08/15 01:51:49;;;;;;;10.23;6.43;;;;;;;18.24;100.00;92985.09;5072934;28;20037;-78
2023/08/15 01:54:15;;;;;;;8.02;5.20;;;;;;;18.18;100.00;92978.44;5073341;28;20040;-78
2023/08/15 01:56:41;;;;;;;8.27;6.35;;;;;;;18.18;100.00;92973.13;5071775;28;20410;-78
2023/08/15 01:59:07;;;;;;;7.70;6.07;;;;;;;18.14;100.00;92974.88;5064677;28;20032;-78
2023/08/15 02:01:32;;;;;;;7.95;5.95;;;;;;;18.10;100.00;92966.75;5073001;28;20482;-78
2023/08/15 02:03:58;;;;;;;8.43;5.43;;;;;;;18.07;100.00;92962.13;5074655;28;20037;-78
2023/08/15 02:06:24;;;;;;;10.63;6.32;;;;;;;18.08;100.00;92953.06;5068702;28;20510;-77
2023/08/15 02:08:49;;;;;;;9.73;5.90;;;;;;;18.14;100.00;92956.31;5056313;28;20033;-78
2023/08/15 02:11:15;;;;;;;9.40;6.20;;;;;;;18.08;100.00;92948.56;5073895;28;20329;-78
2023/08/15 02:13:43;;;;;;;7.22;5.70;;;;;;;18.09;100.00;92949.34;5072196;28;20041;-79
2023/08/15 02:16:10;;;;;;;8.18;6.07;;;;;;;18.08;100.00;92945.13;5073721;28;20032;-78
2023/08/15 02:18:37;;;;;;;9.05;5.70;;;;;;;18.06;100.00;92945.47;5089072;28;20032;-78
2023/08/15 02:21:03;;;;;;;8.73;5.55;;;;;;;18.01;100.00;92950.94;5072534;28;20035;-78
2023/08/15 02:23:28;;;;;;;7.57;5.95;;;;;;;18.04;100.00;92946.88;5073814;28;20496;-78
2023/08/15 02:25:54;;;;;;;9.38;5.75;;;;;;;17.99;100.00;92939.91;5074027;28;20035;-78
2023/08/15 02:28:19;;;;;;;8.27;6.20;;;;;;;17.95;100.00;92933.69;5072506;28;20039;-78
2023/08/15 02:30:45;;;;;;;8.52;5.78;;;;;;;17.94;100.00;92929.47;5072622;28;20410;-78
2023/08/15 02:33:11;;;;;;;7.70;5.97;;;;;;;17.94;100.00;92916.22;5073808;28;20048;-78
2023/08/15 02:35:41;;;;;;;8.52;5.50;;;;;;;17.95;100.00;92923.09;5088799;28;20144;-78
2023/08/15 02:38:07;;;;;;;9.75;6.38;;;;;;;17.99;100.00;92909.97;5071429;28;20047;-78
2023/08/15 02:40:33;;;;;;;7.10;4.95;;;;;;;18.01;100.00;92910.41;5074820;28;20358;-78
2023/08/15 02:42:59;;;;;;;8.70;4.70;;;;;;;17.98;100.00;92906.53;5074004;28;20039;-79
2023/08/15 02:45:25;;;;;;;6.85;4.82;;;;;;;18.02;100.00;92912.75;5072294;28;20041;-78
2023/08/15 02:47:51;;;;;;;7.57;5.22;;;;;;;18.02;100.00;92912.75;5048861;28;20283;-79
2023/08/15 02:50:16;;;;;;;7.38;5.50;;;;;;;18.06;100.00;92911.03;5074389;28;20060;-79
2023/08/15 02:52:42;;;;;;;10.90;5.05;;;;;;;18.02;100.00;92901.38;5089292;28;20128;-79
2023/08/15 02:55:07;;;;;;;7.97;5.55;;;;;;;17.99;100.00;92905.47;5052294;28;20123;-79
2023/08/15 02:57:33;;;;;;;7.47;5.07;;;;;;;17.95;100.00;92907.19;5068178;28;20115;-79
2023/08/15 02:59:59;;;;;;;7.68;5.20;;;;;;;17.94;100.00;92900.34;5070982;28;20032;-78
2023/08/15 03:02:25;;;;;;;7.13;5.15;;;;;;;17.90;100.00;92907.41;5072409;28;20075;-78
2023/08/15 03:04:51;;;;;;;6.78;5.15;;;;;;;17.86;100.00;92904.59;5073792;28;20033;-78
2023/08/15 03:07:16;;;;;;;8.05;5.30;;;;;;;17.80;100.00;92900.53;5073108;28;20056;-79
2023/08/15 03:09:42;;;;;;;6.85;5.10;;;;;;;17.74;100.00;92901.81;5052049;28;20467;-78
2023/08/15 03:12:07;;;;;;;9.15;5.00;;;;;;;17.69;100.00;92892.19;5071281;28;20029;-77
2023/08/15 03:14:33;;;;;;;6.13;4.97;;;;;;;17.68;100.00;92888.00;5075177;28;20048;-78
2023/08/15 03:17:01;;;;;;;8.52;4.97;;;;;;;17.65;100.00;92887.84;5091949;28;20135;-79
2023/08/15 03:19:27;;;;;;;6.97;5.10;;;;;;;17.65;100.00;92888.66;5075244;28;20128;-78
2023/08/15 03:21:52;;;;;;;7.90;5.57;;;;;;;17.61;100.00;92886.97;5076606;28;20540;-78
2023/08/15 03:24:18;;;;;;;6.75;4.90;;;;;;;17.59;100.00;92884.63;5058856;28;20024;-78
2023/08/15 03:26:44;;;;;;;9.70;5.03;;;;;;;17.50;100.00;92886.53;5076005;28;20123;-78
2023/08/15 03:29:09;;;;;;;8.20;5.50;;;;;;;17.47;100.00;92897.75;5073103;28;20466;-78
2023/08/15 03:31:35;;;;;;;7.90;4.72;;;;;;;17.44;100.00;92898.41;5075697;28;20056;-79
2023/08/15 03:34:00;;;;;;;6.35;5.13;;;;;;;17.38;100.00;92903.09;5074561;28;20044;-79
2023/08/15 03:36:27;;;;;;;8.88;5.20;;;;;;;17.35;100.00;92902.94;5075528;28;20094;-78
2023/08/15 03:38:53;;;;;;;7.53;5.10;;;;;;;17.31;100.00;92902.03;5074488;28;20032;-78
2023/08/15 03:41:21;;;;;;;6.60;4.85;;;;;;;17.27;100.00;92909.84;5073597;28;20055;-78
2023/08/15 03:43:46;;;;;;;7.07;5.32;;;;;;;17.27;100.00;92910.63;5076918;28;20092;-79
2023/08/15 03:46:12;;;;;;;9.18;5.50;;;;;;;17.33;100.00;92921.00;5076326;28;20063;-78
2023/08/15 03:48:38;;;;;;;8.13;5.15;;;;;;;17.35;100.00;92916.19;5074293;28;20053;-78
2023/08/15 03:51:04;;;;;;;9.13;5.30;;;;;;;17.32;100.00;92922.13;5075278;28;20037;-77
2023/08/15 03:53:29;;;;;;;7.95;5.03;;;;;;;17.26;100.00;92916.97;5071532;28;20042;-78
2023/08/15 03:55:56;;;;;;;7.47;4.80;;;;;;;17.25;100.00;92922.59;5075440;28;20394;-78
2023/08/15 03:58:23;;;;;;;7.25;5.05;;;;;;;17.23;100.00;92925.56;5091582;28;20130;-79
2023/08/15 04:00:49;;;;;;;7.88;5.40;;;;;;;17.23;100.00;92930.84;5075186;28;20044;-79
2023/08/15 04:03:16;;;;;;;8.73;5.53;;;;;;;17.20;100.00;92934.13;5076645;28;20024;-78
2023/08/15 04:05:46;;;;;;;7.35;5.32;;;;;;;17.22;100.00;92936.44;5074870;28;20402;-78
2023/08/15 04:08:12;;;;;;;7.28;5.28;;;;;;;17.20;100.00;92936.78;5076602;28;20191;-79
2023/08/15 04:10:41;;;;;;;8.40;5.40;;;;;;;17.18;100.00;92938.97;5054376;28;20035;-79
2023/08/15 04:13:07;;;;;;;9.60;5.78;;;;;;;17.17;100.00;92937.41;5076167;28;20031;-78
2023/08/15 04:15:37;;;;;;;8.10;5.88;;;;;;;17.15;100.00;92939.56;5058612;28;20044;-78
2023/08/15 04:18:05;;;;;;;8.38;5.80;;;;;;;17.15;100.00;92934.28;5070180;28;20494;-78
2023/08/15 04:20:31;;;;;;;8.70;5.72;;;;;;;17.13;100.00;92941.75;5073780;28;20468;-78
2023/08/15 04:22:57;;;;;;;9.50;6.05;;;;;;;17.13;100.00;92946.28;5072625;28;20036;-78
2023/08/15 04:25:25;;;;;;;8.02;6.28;;;;;;;17.11;100.00;92948.47;5073732;28;20055;-79
2023/08/15 04:27:51;;;;;;;7.05;5.40;;;;;;;17.14;100.00;92945.97;5090877;28;20132;-79
2023/08/15 04:30:18;;;;;;;13.65;5.80;;;;;;;17.13;100.00;92944.41;5073497;28;20135;-79
2023/08/15 04:32:46;;;;;;;8.38;5.88;;;;;;;17.10;100.00;92942.41;5070439;28;20036;-78
2023/08/15 04:35:12;;;;;;;6.60;5.63;;;;;;;17.12;100.00;92942.09;5070779;28;20071;-79
2023/08/15 04:37:38;;;;;;;8.52;5.93;;;;;;;17.13;100.00;92941.00;5074350;28;20449;-77
2023/08/15 04:40:04;;;;;;;7.05;5.40;;;;;;;17.08;100.00;92944.59;5054325;28;20041;-79
2023/08/15 04:42:30;;;;;;;8.77;5.55;;;;;;;17.10;100.00;92952.22;5068414;28;20033;-79
2023/08/15 04:44:56;;;;;;;8.50;5.60;;;;;;;17.10;100.00;92947.69;5074902;28;20039;-78
2023/08/15 04:47:21;;;;;;;9.85;5.80;;;;;;;17.14;100.00;92953.91;5073183;28;20037;-79
2023/08/15 04:49:47;;;;;;;8.05;5.30;;;;;;;17.15;100.00;92960.75;5053155;28;20053;-78
2023/08/15 04:52:16;;;;;;;8.50;5.18;;;;;;;17.16;100.00;92959.66;5070061;28;20047;-78
2023/08/15 04:54:42;;;;;;;9.45;5.57;;;;;;;17.19;100.00;92959.03;5068900;28;20094;-78
2023/08/15 04:57:08;;;;;;;8.30;4.85;;;;;;;17.25;100.00;92965.72;5073673;28;20037;-79
2023/08/15 04:59:33;;;;;;;7.50;5.28;;;;;;;17.28;100.00;92962.41;5073293;28;20102;-78
2023/08/15 05:01:59;;;;;;;11.18;5.15;;;;;;;17.33;100.00;92964.13;5072338;28;20038;-78
2023/08/15 05:04:24;;;;;;;6.95;5.18;;;;;;;17.39;100.00;92967.38;5054624;28;20045;-78
2023/08/15 05:06:52;;;;;;;6.82;5.07;;;;;;;17.44;100.00;92967.19;5071818;28;20040;-79
2023/08/15 05:09:18;;;;;;;7.22;4.63;;;;;;;17.51;100.00;92972.00;5067023;28;20060;-78
2023/08/15 05:11:45;;;;;;;8.48;5.20;;;;;;;17.54;100.00;92972.16;5071621;28;20025;-79
2023/08/15 05:14:11;;;;;;;9.10;4.53;;;;;;;17.56;100.00;92977.91;5065173;28;20123;-78
2023/08/15 05:16:38;;;;;;;6.97;5.10;;;;;;;17.60;100.00;92972.75;5068498;28;20584;-78
2023/08/15 05:19:04;;;;;;;8.65;4.95;;;;;;;17.67;100.00;92970.38;5073782;28;20118;-78
2023/08/15 05:21:30;;;;;;;6.43;4.38;;;;;;;17.70;100.00;92964.47;5090237;28;20086;-78
2023/08/15 05:23:55;;;;;;;7.22;4.68;;;;;;;17.73;100.00;92963.06;5070402;28;20529;-78
2023/08/15 05:26:21;;;;;;;6.85;4.55;;;;;;;17.80;100.00;92968.63;5069834;28;20399;-78
2023/08/15 05:28:47;;;;;;;6.78;4.82;;;;;;;17.89;100.00;92967.50;5052918;28;20123;-79
2023/08/15 05:31:14;;;;;;;6.25;4.20;;;;;;;17.98;100.00;92974.63;5074961;28;20041;-77
2023/08/15 05:33:39;;;;;;;7.13;4.57;;;;;;;18.06;100.00;92974.59;5073096;28;20123;-78
2023/08/15 05:36:05;;;;;;;6.50;4.22;;;;;;;18.16;100.00;92973.44;5068617;28;20060;-78
2023/08/15 05:38:31;;;;;;;7.60;4.22;;;;;;;18.25;100.00;92966.22;5068961;28;20052;-78
2023/08/15 05:40:56;;;;;;;6.35;4.28;;;;;;;18.41;100.00;92969.06;5055606;28;20040;-78
2023/08/15 05:43:22;;;;;;;5.68;4.18;;;;;;;18.54;100.00;92969.16;5089703;28;20085;-79
2023/08/15 05:45:48;;;;;;;6.15;4.03;;;;;;;18.66;100.00;92963.91;5072034;28;20410;-79
2023/08/15 05:48:14;;;;;;;6.55;4.15;;;;;;;18.79;100.00;92976.13;5070982;28;20028;-78
2023/08/15 05:50:40;;;;;;;7.03;3.78;;;;;;;18.84;100.00;92975.94;5072598;28;20040;-79
2023/08/15 05:53:05;;;;;;;5.28;3.60;;;;;;;18.87;100.00;92977.97;5072362;28;20222;-78
2023/08/15 05:55:31;;;;;;;6.03;3.58;;;;;;;18.90;100.00;92966.69;5053363;28;20046;-77
2023/08/15 05:57:56;;;;;;;6.90;4.05;;;;;;;19.07;100.00;92975.56;5073149;28;20494;-79
2023/08/15 06:00:22;;;;;;;6.60;4.13;;;;;;;19.24;100.00;92972.75;5054352;28;20128;-79
2023/08/15 06:02:48;;;;;;;5.35;4.00;;;;;;;19.41;100.00;92974.47;5074160;28;20482;-78
2023/08/15 06:05:13;;;;;;;6.72;3.90;;;;;;;19.57;100.00;92982.56;5070278;28;20135;-78
2023/08/15 06:07:40;;;;;;;5.95;4.10;;;;;;;19.75;100.00;92983.19;5064048;28;20043;-79
2023/08/15 06:10:07;;;;;;;10.90;3.75;;;;;;;19.94;100.00;92986.06;5073872;28;20029;-79
2023/08/15 06:12:33;;;;;;;5.78;3.33;;;;;;;20.13;100.00;92982.09;5074285;28;20040;-78
2023/08/15 06:14:58;;;;;;;7.07;3.63;;;;;;;20.35;100.00;92983.47;5073871;28;20032;-78
2023/08/15 06:17:24;;;;;;;5.70;3.67;;;;;;;21.05;100.00;92993.84;5071642;28;20398;-79
2023/08/15 06:19:49;;;;;;;7.00;3.97;;;;;;;22.20;100.00;92989.53;5072896;28;20451;-79
2023/08/15 06:22:15;;;;;;;5.28;3.20;;;;;;;23.26;100.00;92996.75;5056973;28;20060;-79
2023/08/15 06:24:41;;;;;;;5.85;2.90;;;;;;;24.12;100.00;93000.91;5073317;28;20063;-79
2023/08/15 06:27:06;;;;;;;6.80;2.70;;;;;;;25.02;100.00;93010.22;5072035;28;20506;-79
2023/08/15 06:29:32;;;;;;;6.63;3.45;;;;;;;25.71;100.00;93020.56;5065076;28;20402;-79
2023/08/15 06:31:59;;;;;;;7.10;3.60;;;;;;;26.09;100.00;93018.66;5073585;28;20086;-80
2023/08/15 06:34:24;;;;;;;6.43;3.50;;;;;;;26.38;100.00;93023.09;5055686;28;20048;-80
2023/08/15 06:36:50;;;;;;;5.85;3.42;;;;;;;26.95;100.00;93020.03;5072698;28;20039;-80
2023/08/15 06:39:16;;;;;;;7.18;3.60;;;;;;;27.29;100.00;93024.41;5071244;28;20123;-79
2023/08/15 06:41:41;;;;;;;6.00;3.50;;;;;;;27.25;100.00;93018.28;5073273;28;20060;-80
2023/08/15 06:44:08;;;;;;;5.57;3.50;;;;;;;26.68;100.00;93016.81;5040314;28;20107;-80
2023/08/15 06:46:35;;;;;;;7.68;3.90;;;;;;;26.61;100.00;93016.75;5054505;28;20518;-79
2023/08/15 06:49:01;;;;;;;7.35;4.35;;;;;;;26.42;100.00;93017.00;5052471;28;20056;-80
2023/08/15 06:51:26;;;;;;;9.00;4.80;;;;;;;25.40;100.00;93014.53;5059542;28;20032;-79
2023/08/15 06:53:54;;;;;;;7.85;4.60;;;;;;;25.39;100.00;93006.84;5073840;28;20086;-79
2023/08/15 06:56:20;;;;;;;7.32;4.70;;;;;;;24.86;100.00;93015.75;5073453;28;20041;-80
2023/08/15 06:58:45;;;;;;;6.43;4.10;;;;;;;24.75;100.00;93012.16;5037569;28;20509;-83
2023/08/15 07:01:12;;;;;;;7.05;4.43;;;;;;;24.65;100.00;93019.66;5057333;28;20109;-82
2023/08/15 07:03:38;;;;;;;7.45;4.55;;;;;;;24.79;100.00;93011.09;5072934;28;20036;-82
2023/08/15 07:06:04;;;;;;;6.30;4.18;;;;;;;24.71;100.00;93017.47;5038457;28;20039;-82
2023/08/15 07:08:30;;;;;;;6.63;4.63;;;;;;;24.66;100.00;93021.22;5078104;28;20067;-82
2023/08/15 07:10:57;;;;;;;7.32;4.90;;;;;;;24.15;100.00;93013.56;5074245;28;20033;-81
2023/08/15 07:13:23;;;;;;;7.32;4.53;;;;;;;23.89;100.00;93017.75;5076867;28;20021;-81
2023/08/15 07:15:55;;;;;;;9.82;4.80;;;;;;;23.84;100.00;93004.66;5078136;28;20186;-81
2023/08/15 07:18:21;;;;;;;7.10;4.47;;;;;;;24.22;100.00;93010.22;5071267;28;20037;-82
2023/08/15 07:20:47;;;;;;;6.90;4.53;;;;;;;24.45;100.00;93007.50;5071827;28;20061;-83
2023/08/15 07:23:12;;;;;;;9.18;4.38;;;;;;;24.21;100.00;93004.09;5076784;28;20029;-82
2023/08/15 07:25:41;;;;;;;6.65;4.22;;;;;;;24.22;100.00;93002.97;5093221;28;20516;-82
2023/08/15 07:28:08;;;;;;;5.90;4.30;;;;;;;23.99;100.00;93004.91;5075809;28;20024;-81
2023/08/15 07:30:33;;;;;;;8.98;4.50;;;;;;;23.88;100.00;93010.84;5071311;28;20033;-86
2023/08/15 07:32:59;;;;;;;6.63;4.80;;;;;;;23.63;100.00;93010.38;5070723;28;20067;-82
2023/08/15 07:35:25;;;;;;;7.35;4.57;;;;;;;23.71;100.00;93011.28;5089358;28;20444;-84
2023/08/15 07:37:51;;;;;;;7.97;4.60;;;;;;;23.67;100.00;93005.09;5036427;28;20033;-83
2023/08/15 07:40:21;;;;;;;7.88;4.38;;;;;;;23.79;100.00;93001.50;5071464;28;20041;-83
2023/08/15 07:42:50;;;;;;;5.55;4.28;;;;;;;23.92;100.00;92983.41;5056788;28;20048;-83
2023/08/15 07:45:16;;;;;;;5.85;4.50;;;;;;;24.07;100.00;92998.53;5069523;28;20027;-83
2023/08/15 07:47:42;;;;;;;8.18;4.40;;;;;;;23.97;100.00;93002.56;5071813;28;20083;-83
2023/08/15 07:50:16;;;;;;;5.55;4.15;;;;;;;24.18;100.00;92998.69;5075094;28;20044;-85
2023/08/15 07:52:43;;;;;;;5.93;4.15;;;;;;;24.34;100.00;92999.34;5070659;28;20024;-82
2023/08/15 07:55:09;;;;;;;5.70;3.97;;;;;;;24.47;100.00;92999.88;5069792;28;20033;-81
2023/08/15 07:57:35;;;;;;;7.45;4.25;;;;;;;24.34;100.00;92988.66;5069887;28;20041;-80
2023/08/15 08:00:01;;;;;;;7.40;4.38;;;;;;;24.36;100.00;92993.63;5088009;28;20055;-81
2023/08/15 08:02:26;;;;;;;6.18;4.32;;;;;;;24.34;100.00;92988.66;5051887;28;20040;-81
2023/08/15 08:04:52;;;;;;;6.85;4.88;;;;;;;24.19;100.00;92993.00;5088446;28;20076;-82
2023/08/15 08:07:18;;;;;;;6.80;4.05;;;;;;;24.49;100.00;92994.97;5073621;28;20033;-82
2023/08/15 08:09:44;;;;;;;6.43;4.55;;;;;;;24.35;100.00;92984.06;5074379;28;20052;-81
2023/08/15 08:12:09;;;;;;;5.93;3.97;;;;;;;24.34;100.00;92983.28;5071989;28;20033;-82
2023/08/15 08:14:35;;;;;;;5.60;4.50;;;;;;;24.23;100.00;92977.78;5071379;28;20029;-81
2023/08/15 08:17:01;;;;;;;7.32;4.30;;;;;;;24.27;100.00;92988.50;5076358;28;20074;-81
2023/08/15 08:19:26;;;;;;;8.45;4.10;;;;;;;24.15;100.00;92988.72;5079219;28;20121;-81
2023/08/15 08:21:52;;;;;;;6.88;4.50;;;;;;;24.06;100.00;92986.28;5073297;28;20028;-81
2023/08/15 08:24:18;;;;;;;5.65;3.92;;;;;;;24.36;100.00;92980.25;5074514;28;20806;-81
2023/08/15 08:26:44;;;;;;;8.25;4.40;;;;;;;24.34;100.00;92971.78;5076165;28;20021;-82
2023/08/15 08:29:10;;;;;;;5.70;4.40;;;;;;;24.36;100.00;92969.53;5074245;28;20116;-81
2023/08/15 08:31:37;;;;;;;5.85;4.45;;;;;;;24.41;100.00;92974.56;5074461;28;20444;-82
2023/08/15 08:34:03;;;;;;;6.18;4.00;;;;;;;24.45;100.00;92978.88;5054177;28;20032;-81
2023/08/15 08:36:29;;;;;;;9.07;4.35;;;;;;;24.63;100.00;92971.09;5083155;28;20314;-81
2023/08/15 08:38:54;;;;;;;8.27;3.67;;;;;;;24.99;100.00;92974.22;5075991;28;20039;-80
2023/08/15 08:41:21;;;;;;;5.40;4.15;;;;;;;24.95;100.00;92973.41;5056859;28;20047;-81
2023/08/15 08:43:47;;;;;;;5.95;4.20;;;;;;;25.10;100.00;92968.97;5074328;28;20036;-82
2023/08/15 08:46:13;;;;;;;7.70;4.00;;;;;;;25.07;100.00;92970.50;5073949;28;20025;-83
2023/08/15 08:48:41;;;;;;;11.68;4.80;;;;;;;24.98;100.00;92967.31;5074001;28;20060;-82
2023/08/15 08:51:08;;;;;;;7.57;3.97;;;;;;;24.83;100.00;92965.59;5071920;28;20504;-82
2023/08/15 08:53:34;;;;;;;7.40;4.40;;;;;;;24.83;100.00;92963.69;5075207;28;20166;-81
2023/08/15 08:56:01;;;;;;;5.47;4.35;;;;;;;25.03;100.00;92964.31;5074829;28;20032;-82
2023/08/15 08:58:29;;;;;;;9.05;4.40;;;;;;;25.10;100.00;92975.09;5072499;28;20072;-81
2023/08/15 09:00:58;;;;;;;7.82;4.22;;;;;;;24.96;100.00;92964.22;5074444;28;20416;-81
2023/08/15 09:03:24;;;;;;;7.80;4.45;;;;;;;24.97;100.00;92971.16;5074760;28;20028;-81
2023/08/15 09:05:50;;;;;;;6.13;4.20;;;;;;;24.68;100.00;92968.09;5076583;28;20028;-82
2023/08/15 09:08:17;;;;;;;7.43;4.57;;;;;;;24.72;100.00;92966.25;5081696;28;20029;-82
2023/08/15 09:10:44;;;;;;;8.15;4.70;;;;;;;24.63;100.00;92962.28;5080919;28;20116;-82
2023/08/15 09:13:10;;;;;;;7.50;4.70;;;;;;;24.68;100.00;92959.31;5057135;28;20099;-82
2023/08/15 09:15:35;;;;;;;7.13;4.22;;;;;;;24.46;100.00;92968.94;5076071;28;20058;-81
2023/08/15 09:18:07;;;;;;;7.32;4.50;;;;;;;24.55;100.00;92961.44;5075848;28;20068;-83
2023/08/15 09:20:44;;;;;;;;;;;;;;;24.61;100.00;92962.66;5071443;28;20037;-82
2023/08/15 09:23:09;;;;;;;5.22;4.25;;;;;;;24.78;100.00;92955.22;5056037;28;19962;-81
2023/08/15 09:25:36;;;;;;;7.38;4.47;;;;;;;24.99;100.00;92955.47;5070776;28;20037;-83
2023/08/15 09:28:05;;;;;;;6.28;4.28;;;;;;;24.74;100.00;92955.16;5054215;28;20037;-82
2023/08/15 09:30:31;;;;;;;7.32;4.72;;;;;;;24.79;100.00;92960.22;5071861;28;20036;-83
2023/08/15 09:32:57;;;;;;;5.85;4.60;;;;;;;24.84;100.00;92951.09;5056303;28;20044;-83
2023/08/15 09:35:22;;;;;;;11.48;4.55;;;;;;;24.87;100.00;92943.09;5068415;28;20028;-79
2023/08/15 09:37:49;;;;;;;7.70;4.22;;;;;;;25.05;100.00;92956.69;5088150;28;20039;-82
2023/08/15 09:40:17;;;;;;;6.63;4.50;;;;;;;25.05;100.00;92954.00;5082119;28;20032;-85
2023/08/15 09:42:44;;;;;;;5.82;4.43;;;;;;;25.06;100.00;92952.88;5088717;28;20490;-84
2023/08/15 09:45:12;;;;;;;5.85;4.43;;;;;;;25.34;100.00;92939.03;5074833;28;20024;-84
2023/08/15 09:47:39;;;;;;;7.03;4.55;;;;;;;25.43;100.00;92938.75;5072704;28;20500;-83
2023/08/15 09:50:07;;;;;;;7.10;4.05;;;;;;;25.31;100.00;92944.38;5069657;28;20556;-84
2023/08/15 09:52:37;;;;;;;6.22;4.28;;;;;;;25.40;100.00;92941.38;5073047;28;20490;-84
2023/08/15 09:55:03;;;;;;;7.75;4.30;;;;;;;25.27;100.00;92940.88;5073905;28;20538;-84
2023/08/15 09:57:29;;;;;;;5.90;4.00;;;;;;;24.98;100.00;92942.47;5072052;28;20063;-83
2023/08/15 09:59:54;;;;;;;6.10;4.45;;;;;;;25.04;100.00;92944.44;5066521;28;21502;-83
2023/08/15 10:02:24;;;;;;;7.30;4.13;;;;;;;24.99;100.00;92941.31;5068105;28;20695;-82
2023/08/15 10:04:59;;;;;;;8.40;4.80;;;;;;;24.79;100.00;92929.97;5074230;28;20029;-83
2023/08/15 10:07:26;;;;;;;7.53;4.13;;;;;;;25.07;100.00;92940.25;5067246;28;20045;-82
2023/08/15 10:09:53;;;;;;;8.07;4.28;;;;;;;25.18;100.00;92940.38;5087998;28;20055;-83
2023/08/15 10:12:20;;;;;;;6.25;4.40;;;;;;;25.20;100.00;92938.16;5075152;28;20494;-82
2023/08/15 10:14:46;;;;;;;5.10;3.75;;;;;;;25.58;100.00;92928.94;5058000;28;20452;-83
2023/08/15 10:17:12;;;;;;;7.97;4.82;;;;;;;25.19;100.00;92923.19;5072437;28;20549;-83
2023/08/15 10:19:45;;;;;;;7.60;4.25;;;;;;;25.23;100.00;92924.00;5088016;28;20037;-83
2023/08/15 10:22:11;;;;;;;6.55;4.13;;;;;;;25.44;100.00;92921.53;5052346;28;20044;-83
2023/08/15 10:24:36;;;;;;;6.65;4.47;;;;;;;25.53;100.00;92922.00;5060404;28;20047;-83
2023/08/15 10:27:02;;;;;;;6.95;4.40;;;;;;;25.69;100.00;92920.97;5078389;28;20032;-82
2023/08/15 10:29:29;;;;;;;8.90;4.47;;;;;;;25.82;100.00;92922.22;5074670;28;20043;-82
2023/08/15 10:32:03;;;;;;;8.70;4.10;;;;;;;25.85;100.00;92915.34;5075811;28;20036;-83
2023/08/15 10:34:33;;;;;;;6.45;4.28;;;;;;;25.92;100.00;92918.91;5076537;28;20132;-82
2023/08/15 10:37:31;;;;;;;6.82;4.30;;;;;;;25.85;100.00;92916.16;5068316;28;20040;-82
2023/08/15 10:40:13;;;;;;;5.65;4.22;;;;;;;25.77;100.00;92914.53;5069071;28;20032;-81
2023/08/15 10:43:00;;;;;;;8.80;4.25;;;;;;;25.77;100.00;92917.22;5065832;28;20043;-84
2023/08/15 10:45:29;;;;;;;7.35;4.18;;;;;;;25.90;100.00;92918.50;5053388;28;20048;-84
2023/08/15 10:47:56;;;;;;;6.22;4.35;;;;;;;26.07;100.00;92921.69;5070867;28;20024;-82
2023/08/15 10:50:22;;;;;;;6.95;4.38;;;;;;;25.95;100.00;92926.19;5065698;28;20052;-83
2023/08/15 10:53:01;;;;;;;6.82;4.88;;;;;;;26.09;100.00;92922.06;5069590;28;20060;-83
2023/08/15 10:55:28;;;;;;;5.88;4.40;;;;;;;26.29;100.00;92920.69;5074103;28;20036;-79
2023/08/15 10:57:55;;;;;;;6.25;4.32;;;;;;;26.15;100.00;92917.91;5071573;28;20087;-81
2023/08/15 11:00:22;;;;;;;6.65;4.40;;;;;;;26.06;100.00;92917.47;5070073;28;20033;-81
2023/08/15 11:02:49;;;;;;;6.35;4.28;;;;;;;26.18;100.00;92912.56;5074939;28;20123;-85
2023/08/15 11:05:15;;;;;;;6.30;4.07;;;;;;;26.03;100.00;92916.31;5057414;28;20054;-82
2023/08/15 11:07:43;;;;;;;6.80;4.30;;;;;;;26.30;100.00;92914.19;5072835;28;20037;-85
2023/08/15 11:10:12;;;;;;;8.73;4.20;;;;;;;26.42;100.00;92909.66;5071522;28;20036;-83
2023/08/15 11:12:37;;;;;;;6.07;3.75;;;;;;;26.56;100.00;92910.50;5075183;28;20032;-85
2023/08/15 11:15:08;;;;;;;6.30;4.53;;;;;;;26.09;100.00;92920.16;5039416;28;20712;-85
2023/08/15 11:17:35;;;;;;;5.75;4.00;;;;;;;26.34;100.00;92908.81;5077466;28;20066;-85
2023/08/15 11:20:00;;;;;;;12.30;4.20;;;;;;;26.34;100.00;92906.94;5073811;28;20044;-85
2023/08/15 11:22:26;;;;;;;5.07;3.63;;;;;;;26.42;100.00;92905.03;5073025;28;20032;-84